Time;durP1;ratioP1;P1;durP2;ratioP2;P2;SDS_P1;SDS_P2;PMS_P1;PMS_P2;Temp;Humidity;BMP_temperature;BMP_pressure;BME280_temperature;BME280_humidity;BME280_pressure;Samples;Min_cycle;Max_cycle;Signal;HPM_P1;HPM_P2
2024/02/07 00:02:04;;;;;;;3.23;2.93;;;;;;;7.89;66.56;95028.75;4926790;29;20229;-83
2024/02/07 00:04:31;;;;;;;3.57;2.90;;;;;;;7.87;66.53;95033.28;4924381;29;20238;-84
2024/02/07 00:07:02;;;;;;;4.73;3.37;;;;;;;7.91;66.41;95029.38;4924407;29;20202;-84
2024/02/07 00:09:28;;;;;;;3.53;3.23;;;;;;;8.00;66.31;95013.94;4924875;29;20209;-84
2024/02/07 00:11:55;;;;;;;4.30;3.30;;;;;;;8.08;65.90;95008.75;4916174;29;20206;-84
2024/02/07 00:14:21;;;;;;;3.17;2.87;;;;;;;8.08;65.87;95001.81;4924435;29;20233;-84
2024/02/07 00:16:48;;;;;;;5.03;3.20;;;;;;;8.09;65.94;94998.28;4923276;29;20230;-83
2024/02/07 00:19:14;;;;;;;4.13;2.97;;;;;;;7.82;66.48;95017.63;4924094;29;20784;-85
2024/02/07 00:21:40;;;;;;;4.37;3.30;;;;;;;7.62;67.16;95035.22;4924158;29;20202;-84
2024/02/07 00:24:08;;;;;;;3.53;3.23;;;;;;;7.62;67.50;95048.03;4924165;29;20226;-84
2024/02/07 00:26:35;;;;;;;3.47;3.17;;;;;;;7.54;67.93;95068.56;4923998;29;20205;-84
2024/02/07 00:29:02;;;;;;;4.50;3.37;;;;;;;7.59;68.07;95060.38;4924264;29;20237;-84
2024/02/07 00:31:28;;;;;;;4.23;3.50;;;;;;;7.54;68.07;95066.00;4924412;29;20226;-84
2024/02/07 00:33:55;;;;;;;5.47;2.97;;;;;;;7.62;67.79;95060.06;4921375;29;20237;-85
2024/02/07 00:36:22;;;;;;;4.00;3.10;;;;;;;7.65;68.05;95028.97;4923683;29;20233;-85
2024/02/07 00:38:48;;;;;;;3.30;3.00;;;;;;;7.72;67.59;95024.72;4923371;29;20210;-84
2024/02/07 00:41:23;;;;;;;3.10;2.80;;;;;;;7.81;67.27;95017.78;4924146;29;20210;-84
2024/02/07 00:43:50;;;;;;;3.37;2.90;;;;;;;7.77;67.60;95011.41;4923124;29;20230;-83
2024/02/07 00:46:17;;;;;;;3.27;2.97;;;;;;;7.81;67.05;95004.97;4924355;29;20206;-84
2024/02/07 00:48:44;;;;;;;3.93;3.00;;;;;;;7.68;67.40;95007.34;4924909;29;20614;-86
2024/02/07 00:51:10;;;;;;;3.30;2.93;;;;;;;7.64;67.83;95027.38;4923461;29;20210;-83
2024/02/07 00:53:36;;;;;;;5.23;3.10;;;;;;;7.54;67.96;95031.91;4926279;29;20600;-84
2024/02/07 00:56:03;;;;;;;4.43;3.27;;;;;;;7.52;68.44;95032.09;4926608;29;20313;-84
2024/02/07 00:58:31;;;;;;;4.23;2.93;;;;;;;7.51;68.58;95045.06;4927706;29;20206;-84
2024/02/07 01:00:57;;;;;;;3.10;2.80;;;;;;;7.55;68.31;95028.38;4927136;29;20213;-84
2024/02/07 01:03:56;;;;;;;5.10;3.47;;;;;;;7.47;68.59;95047.19;4933811;23;20240;-84
2024/02/07 01:06:36;;;;;;;6.63;3.40;;;;;;;7.52;68.73;95044.09;4925049;29;20321;-85
2024/02/07 01:09:06;;;;;;;4.53;3.20;;;;;;;7.54;69.02;95047.28;4927036;29;20258;-84
2024/02/07 01:11:35;;;;;;;4.43;3.40;;;;;;;7.60;68.41;95036.38;4919087;29;20210;-85
2024/02/07 01:14:15;;;;;;;3.73;3.20;;;;;;;7.47;68.64;95034.38;4908357;29;20291;-84
2024/02/07 01:16:58;;;;;;;3.77;3.43;;;;;;;7.56;68.74;95041.03;4918631;29;20225;-85
2024/02/07 01:19:30;;;;;;;4.07;3.13;;;;;;;7.45;68.89;95048.31;4918645;29;20198;-84
2024/02/07 01:21:56;;;;;;;3.83;3.20;;;;;;;7.55;68.77;95031.75;4916913;29;20627;-84
2024/02/07 01:24:35;;;;;;;3.67;3.20;;;;;;;7.53;68.80;95032.88;4918223;29;20238;-87
2024/02/07 01:27:01;;;;;;;3.93;3.17;;;;;;;7.52;68.92;95021.03;4918156;29;20225;-85
2024/02/07 01:30:11;;;;;;;4.03;3.47;;;;;;;7.57;68.74;95016.22;4918890;29;20242;-84
2024/02/07 01:32:46;;;;;;;4.17;3.23;;;;;;;7.53;68.62;95007.28;4918172;29;20225;-84
2024/02/07 01:35:19;;;;;;;4.80;3.70;;;;;;;7.55;68.62;95013.03;4918082;29;20210;-85
2024/02/07 01:37:54;;;;;;;4.30;3.37;;;;;;;7.59;68.46;94998.91;4916471;29;20731;-85
2024/02/07 01:40:31;;;;;;;3.73;3.33;;;;;;;7.57;68.63;94996.50;4917829;29;20216;-84
2024/02/07 01:43:08;;;;;;;4.93;3.30;;;;;;;7.44;68.97;94998.88;4917683;29;20313;-84
2024/02/07 01:45:53;;;;;;;3.70;3.40;;;;;;;7.52;68.58;95003.91;4918867;29;20222;-85
2024/02/07 01:48:45;;;;;;;4.30;3.30;;;;;;;7.32;69.31;95010.47;4918567;29;20206;-85
2024/02/07 01:51:13;;;;;;;4.70;3.83;;;;;;;7.47;69.30;95011.34;4918329;29;20205;-84
2024/02/07 01:53:40;;;;;;;4.10;3.40;;;;;;;7.42;69.27;95016.16;4916210;29;20249;-84
2024/02/07 01:56:13;;;;;;;3.73;3.37;;;;;;;7.37;69.66;95004.84;4917286;29;20218;-84
2024/02/07 01:58:40;;;;;;;3.83;3.30;;;;;;;7.55;68.79;95003.56;4918590;29;20202;-85
2024/02/07 02:01:10;;;;;;;3.50;3.10;;;;;;;7.50;68.99;94992.28;4917940;29;20210;-84
2024/02/07 02:03:37;;;;;;;5.20;3.37;;;;;;;7.54;68.72;94981.47;4917850;29;20266;-84
2024/02/07 02:06:04;;;;;;;3.60;3.30;;;;;;;7.66;68.22;94973.41;4905799;29;20398;-84
2024/02/07 02:08:30;;;;;;;4.60;3.40;;;;;;;7.65;68.28;94948.75;4908017;29;20213;-84
2024/02/07 02:11:02;;;;;;;5.30;3.50;;;;;;;7.68;68.37;94951.78;4916345;29;20206;-84
2024/02/07 02:13:29;;;;;;;4.03;3.53;;;;;;;7.70;67.92;94939.56;4918898;29;20262;-84
2024/02/07 02:15:56;;;;;;;3.93;3.17;;;;;;;7.63;68.11;94946.38;4918102;29;20222;-84
2024/02/07 02:18:24;;;;;;;4.03;3.40;;;;;;;7.67;67.91;94923.75;4918113;29;20202;-85
2024/02/07 02:20:50;;;;;;;3.07;2.77;;;;;;;7.58;68.24;94923.03;4919219;29;20225;-84
2024/02/07 02:23:43;;;;;;;4.20;2.70;;;;;;;7.55;68.46;94941.31;4918438;29;20226;-84
2024/02/07 02:26:35;;;;;;;3.70;2.93;;;;;;;7.43;68.97;94945.25;4916554;29;20217;-84
2024/02/07 02:29:15;;;;;;;6.57;3.10;;;;;;;7.39;69.06;94942.25;4917299;29;20206;-84
2024/02/07 02:31:44;;;;;;;4.30;2.83;;;;;;;7.39;69.23;94957.59;4918487;29;20285;-85
2024/02/07 02:34:14;;;;;;;4.60;2.90;;;;;;;7.46;68.88;94950.03;4918369;29;20226;-84
2024/02/07 02:36:41;;;;;;;3.73;2.50;;;;;;;7.43;69.10;94948.63;4917904;29;20217;-84
2024/02/07 02:39:08;;;;;;;4.50;2.67;;;;;;;7.49;68.61;94940.25;4917541;29;20233;-83
2024/02/07 02:41:35;;;;;;;4.57;2.87;;;;;;;7.57;68.59;94921.44;4917565;29;20240;-83
2024/02/07 02:44:01;;;;;;;3.70;2.70;;;;;;;7.70;68.12;94908.81;4915540;29;20226;-83
2024/02/07 02:46:29;;;;;;;5.27;2.90;;;;;;;7.56;68.04;94905.25;4917425;29;20198;-84
2024/02/07 02:48:55;;;;;;;4.40;2.93;;;;;;;7.60;68.40;94914.19;4918168;29;20656;-83
2024/02/07 02:51:22;;;;;;;4.57;2.73;;;;;;;7.63;67.92;94913.06;4918392;29;20240;-84
2024/02/07 02:53:49;;;;;;;3.00;2.70;;;;;;;7.65;68.02;94910.31;4918516;29;20230;-84
2024/02/07 02:56:16;;;;;;;3.70;2.90;;;;;;;7.63;67.84;94903.59;4917575;29;20232;-83
2024/02/07 02:58:42;;;;;;;3.20;2.50;;;;;;;7.61;67.90;94892.75;4916239;29;20226;-83
2024/02/07 03:01:09;;;;;;;4.33;2.43;;;;;;;7.56;68.31;94897.59;4918203;29;20199;-83
2024/02/07 03:03:37;;;;;;;2.70;2.50;;;;;;;7.54;68.20;94904.63;4917160;29;20237;-83
2024/02/07 03:06:17;;;;;;;3.50;2.60;;;;;;;7.55;68.34;94900.31;4917914;29;20286;-84
2024/02/07 03:08:43;;;;;;;2.90;2.60;;;;;;;7.55;68.32;94895.19;4918989;29;20213;-84
2024/02/07 03:11:09;;;;;;;2.87;2.57;;;;;;;7.60;68.03;94882.66;4918642;29;20624;-83
2024/02/07 03:13:37;;;;;;;4.80;2.80;;;;;;;7.61;68.01;94891.94;4918775;29;20326;-84
2024/02/07 03:16:05;;;;;;;2.67;2.47;;;;;;;7.63;68.10;94880.56;4917276;29;20273;-83
2024/02/07 03:18:33;;;;;;;3.07;2.20;;;;;;;7.63;67.74;94872.06;4919168;29;20600;-83
2024/02/07 03:21:02;;;;;;;4.23;2.70;;;;;;;7.72;67.42;94853.06;4919374;29;20289;-84
2024/02/07 03:23:28;;;;;;;5.13;2.33;;;;;;;7.75;67.36;94860.41;4918577;29;20233;-85
2024/02/07 03:25:56;;;;;;;4.20;2.63;;;;;;;7.75;67.38;94849.34;4918810;29;20684;-83
2024/02/07 03:28:22;;;;;;;3.17;2.60;;;;;;;7.76;67.25;94836.38;4918462;29;20252;-86
2024/02/07 03:30:49;;;;;;;3.33;2.70;;;;;;;7.63;67.26;94842.13;4913968;29;20209;-87
2024/02/07 03:33:17;;;;;;;4.00;2.27;;;;;;;7.58;67.73;94854.66;4914796;29;20233;-85
2024/02/07 03:35:43;;;;;;;3.80;2.70;;;;;;;7.51;67.95;94860.66;4915613;29;20206;-87
2024/02/07 03:38:11;;;;;;;3.00;2.50;;;;;;;7.53;67.62;94859.50;4917146;29;20224;-83
2024/02/07 03:40:38;;;;;;;3.27;2.23;;;;;;;7.48;67.39;94840.53;4919394;29;20206;-84
2024/02/07 03:43:06;;;;;;;4.03;2.60;;;;;;;7.50;67.58;94854.75;4920460;29;20226;-84
2024/02/07 03:45:33;;;;;;;3.93;2.70;;;;;;;7.45;67.69;94838.31;4920084;29;20214;-85
2024/02/07 03:47:59;;;;;;;3.20;2.37;;;;;;;7.47;67.46;94838.94;4918508;29;20210;-84
2024/02/07 03:50:27;;;;;;;5.00;2.73;;;;;;;7.50;67.37;94818.91;4921078;29;20244;-83
2024/02/07 03:52:55;;;;;;;4.03;2.50;;;;;;;7.51;67.30;94812.00;4919959;29;20215;-83
2024/02/07 03:55:22;;;;;;;2.57;2.37;;;;;;;7.55;67.12;94793.53;4922672;29;20202;-84
2024/02/07 03:57:49;;;;;;;3.07;2.40;;;;;;;7.61;66.48;94780.03;4912787;29;20617;-84
2024/02/07 04:00:16;;;;;;;4.77;2.20;;;;;;;7.62;66.51;94763.69;4920439;29;20210;-84
2024/02/07 04:02:45;;;;;;;3.17;2.33;;;;;;;7.63;65.97;94760.16;4918885;29;20205;-83
2024/02/07 04:05:12;;;;;;;2.50;2.17;;;;;;;7.67;65.67;94749.56;4918740;29;20214;-84
2024/02/07 04:07:39;;;;;;;5.23;2.33;;;;;;;7.59;66.00;94743.53;4919813;29;20213;-83
2024/02/07 04:10:09;;;;;;;5.63;2.53;;;;;;;7.55;65.96;94750.00;4919175;29;20205;-83
2024/02/07 05:17:50;;;;;;;4.40;2.73;;;;;;;7.84;64.79;94667.16;4921646;29;20607;-85
2024/02/07 05:20:16;;;;;;;2.63;2.43;;;;;;;7.87;64.97;94661.69;4923913;29;20198;-84
2024/02/07 05:22:43;;;;;;;4.67;2.83;;;;;;;7.90;64.84;94670.75;4922634;29;20199;-84
2024/02/07 05:25:10;;;;;;;3.03;2.30;;;;;;;7.90;64.76;94656.16;4920210;29;20206;-84
2024/02/07 05:27:37;;;;;;;2.70;2.50;;;;;;;7.87;65.02;94653.19;4927342;29;20210;-84
2024/02/07 05:30:05;;;;;;;3.60;2.40;;;;;;;7.85;65.05;94658.50;4923726;29;20700;-85
2024/02/07 05:32:32;;;;;;;5.87;2.53;;;;;;;7.77;65.16;94668.06;4926571;29;20206;-84
2024/02/07 05:34:59;;;;;;;4.33;2.37;;;;;;;7.77;65.51;94663.72;4924121;29;20699;-84
2024/02/07 05:37:28;;;;;;;4.43;2.47;;;;;;;7.83;65.27;94662.22;4920527;29;20225;-85
2024/02/07 05:39:54;;;;;;;3.90;2.40;;;;;;;7.91;64.79;94668.00;4916764;29;20210;-85
2024/02/07 05:42:23;;;;;;;3.63;2.50;;;;;;;7.98;64.80;94650.94;4917247;29;20216;-84
2024/02/07 05:44:50;;;;;;;5.63;2.40;;;;;;;8.09;64.46;94643.72;4916761;29;20862;-85
2024/02/07 05:47:20;;;;;;;4.80;2.30;;;;;;;8.07;64.70;94649.06;4916067;29;20786;-85
2024/02/07 05:49:46;;;;;;;3.33;2.47;;;;;;;8.02;64.31;94648.81;4909053;29;20202;-85
2024/02/07 05:52:15;;;;;;;4.00;2.37;;;;;;;8.03;64.49;94652.97;4901937;29;20210;-86
2024/02/07 05:54:44;;;;;;;3.10;2.40;;;;;;;8.13;64.33;94640.59;4916452;29;20314;-85
2024/02/07 05:57:10;;;;;;;3.20;2.27;;;;;;;8.12;64.24;94628.78;4913748;29;20704;-85
2024/02/07 05:59:37;;;;;;;4.43;2.40;;;;;;;8.21;64.09;94619.97;4916007;29;20216;-85
2024/02/07 06:02:07;;;;;;;4.40;2.40;;;;;;;8.22;63.96;94613.09;4915583;29;20262;-85
2024/02/07 06:04:34;;;;;;;4.53;2.10;;;;;;;8.25;63.85;94610.94;4915695;29;20293;-86
2024/02/07 06:07:00;;;;;;;4.77;2.50;;;;;;;8.35;63.55;94591.88;4900824;29;20207;-84
2024/02/07 06:09:31;;;;;;;6.30;2.10;;;;;;;8.29;63.35;94578.00;4898125;29;20231;-86
2024/02/07 06:11:57;;;;;;;3.13;2.10;;;;;;;8.36;63.44;94578.09;4900412;29;20649;-85
2024/02/07 06:14:24;;;;;;;5.57;2.40;;;;;;;8.25;63.80;94587.88;4916594;29;20241;-85
2024/02/07 06:16:51;;;;;;;4.60;2.03;;;;;;;8.34;63.51;94580.03;4915832;29;20242;-88
2024/02/07 06:19:18;;;;;;;2.30;2.10;;;;;;;8.28;63.40;94594.38;4916022;29;20214;-86
2024/02/07 06:21:45;;;;;;;5.20;2.33;;;;;;;8.27;63.41;94567.94;4917263;29;20731;-85
2024/02/07 06:24:11;;;;;;;3.63;2.30;;;;;;;8.36;63.19;94566.06;4917424;29;20234;-84
2024/02/07 06:26:39;;;;;;;4.70;2.17;;;;;;;8.34;63.19;94574.91;4918425;29;20617;-86
2024/02/07 06:29:05;;;;;;;3.70;2.20;;;;;;;8.41;63.34;94576.56;4918505;29;20602;-86
2024/02/07 06:31:32;;;;;;;4.80;2.07;;;;;;;8.33;63.22;94569.00;4920023;29;20214;-84
2024/02/07 06:34:01;;;;;;;2.87;2.27;;;;;;;8.38;63.30;94576.94;4918896;29;20234;-85
2024/02/07 06:36:27;;;;;;;4.80;1.97;;;;;;;8.34;63.14;94567.22;4919652;29;20210;-84
2024/02/07 06:38:53;;;;;;;5.33;1.90;;;;;;;8.42;63.34;94565.31;4918027;29;20261;-86
2024/02/07 06:41:20;;;;;;;3.60;2.13;;;;;;;8.36;63.12;94567.84;4917070;29;20241;-84
2024/02/07 06:43:51;;;;;;;2.77;1.90;;;;;;;8.38;63.27;94568.44;4917739;29;20447;-85
2024/02/07 06:46:17;;;;;;;4.70;1.90;;;;;;;8.41;63.11;94565.50;4917057;29;20207;-85
2024/02/07 06:48:44;;;;;;;5.00;2.10;;;;;;;8.45;62.92;94562.38;4916772;29;20209;-84
2024/02/07 06:51:10;;;;;;;3.30;2.00;;;;;;;8.46;62.87;94563.97;4917377;29;20210;-86
2024/02/07 06:53:36;;;;;;;4.03;2.60;;;;;;;8.46;63.00;94546.03;4917810;29;20222;-85
2024/02/07 06:56:03;;;;;;;4.77;2.70;;;;;;;8.50;62.60;94561.81;4919168;29;20213;-84
2024/02/07 06:58:32;;;;;;;4.87;2.00;;;;;;;8.65;62.58;94539.41;4918018;29;20237;-85
2024/02/07 07:01:00;;;;;;;2.90;2.00;;;;;;;8.60;62.32;94523.78;4917629;29;20723;-85
2024/02/07 07:03:27;;;;;;;2.03;1.50;;;;;;;8.55;62.84;94537.16;4918056;29;20246;-86
2024/02/07 07:05:53;;;;;;;3.40;1.90;;;;;;;8.54;62.75;94540.72;4920077;29;20210;-85
2024/02/07 07:08:19;;;;;;;4.83;2.13;;;;;;;8.59;62.49;94545.28;4919259;29;20668;-85
2024/02/07 07:10:46;;;;;;;3.27;1.70;;;;;;;8.55;62.76;94542.31;4917670;29;20217;-85
2024/02/07 07:13:14;;;;;;;2.50;1.77;;;;;;;8.63;62.45;94542.16;4908876;29;20227;-84
2024/02/07 07:15:42;;;;;;;4.50;1.80;;;;;;;8.70;62.01;94537.03;4909714;29;20207;-84
2024/02/07 07:18:09;;;;;;;3.20;1.97;;;;;;;8.76;62.25;94526.03;4931072;29;20303;-84
2024/02/07 07:20:36;;;;;;;3.97;1.70;;;;;;;8.76;62.24;94522.66;4930283;29;20221;-84
2024/02/07 07:23:04;;;;;;;6.17;1.87;;;;;;;9.05;61.21;94501.81;4928052;29;20209;-85
2024/02/07 07:25:31;;;;;;;5.47;2.13;;;;;;;9.58;60.25;94448.78;4933919;29;20198;-84
2024/02/07 07:27:57;;;;;;;2.67;1.70;;;;;;;10.22;58.68;94388.16;4930496;29;20210;-85
2024/02/07 07:30:23;;;;;;;4.83;2.00;;;;;;;10.59;57.36;94319.69;4922396;29;20214;-86
2024/02/07 07:32:50;;;;;;;2.33;1.90;;;;;;;10.88;56.14;94284.84;4920618;29;20202;-85
2024/02/07 07:35:18;;;;;;;3.97;1.93;;;;;;;11.03;55.31;94223.53;4924299;29;20205;-84
2024/02/07 07:37:44;;;;;;;4.13;2.10;;;;;;;11.27;54.91;94186.63;4923344;29;20271;-85
2024/02/07 07:40:11;;;;;;;3.10;1.83;;;;;;;11.16;55.18;94176.25;4920209;29;20227;-85
2024/02/07 07:42:38;;;;;;;3.60;1.60;;;;;;;11.16;55.09;94174.44;4928771;29;20680;-84
2024/02/07 07:45:05;;;;;;;2.67;1.70;;;;;;;11.24;54.89;94173.38;4922489;29;20226;-85
2024/02/07 07:47:31;;;;;;;3.40;1.87;;;;;;;11.09;55.07;94160.88;4917686;29;20212;-85
2024/02/07 07:50:00;;;;;;;6.70;2.00;;;;;;;10.68;55.88;94206.00;4916044;29;20221;-85
2024/02/07 07:52:28;;;;;;;7.00;2.03;;;;;;;10.29;56.64;94243.09;4918342;29;20210;-85
2024/02/07 07:54:54;;;;;;;5.17;2.00;;;;;;;10.03;57.53;94279.19;4921294;29;20343;-84
2024/02/07 07:57:22;;;;;;;6.07;1.93;;;;;;;9.94;58.11;94301.00;4922750;29;20704;-85
2024/02/07 08:13:36;;;;;;;2.83;1.50;;;;;;;11.71;53.89;94151.22;4884350;29;20202;-85
2024/02/07 08:20:01;;;;;;;5.10;1.93;;;;;;;12.38;52.29;94053.78;4825759;29;20243;-85
2024/02/07 08:26:23;;;;;;;3.60;1.60;;;;;;;12.66;51.45;94014.38;4824740;29;20285;-84
2024/02/07 08:28:56;;;;;;;4.07;1.60;;;;;;;12.59;51.21;93991.25;4883410;29;20204;-85
2024/02/07 08:31:23;;;;;;;2.20;1.40;;;;;;;12.44;51.46;93996.91;4914189;29;20220;-85
2024/02/07 08:37:55;;;;;;;4.80;1.90;;;;;;;12.39;51.77;94011.50;4815558;29;20352;-84
2024/02/07 08:43:32;;;;;;;2.40;1.40;;;;;;;12.84;51.06;93982.44;4840255;29;20867;-84
2024/02/07 08:46:32;;;;;;;2.20;1.60;;;;;;;12.71;50.82;93955.06;4865614;29;20264;-85
2024/02/07 08:51:45;;;;;;;3.13;1.63;;;;;;;12.41;51.50;93986.25;4849679;29;20222;-85
2024/02/07 08:54:34;;;;;;;2.17;1.50;;;;;;;12.12;52.27;94011.19;4882660;29;20249;-85
2024/02/07 08:57:44;;;;;;;4.37;1.77;;;;;;;11.74;53.17;94069.03;4922222;29;20249;-86
2024/02/07 09:00:33;;;;;;;3.97;2.00;;;;;;;11.39;54.35;94132.56;4885764;29;20744;-85
2024/02/07 09:03:23;;;;;;;3.37;1.67;;;;;;;11.22;54.65;94149.63;4923997;29;20598;-85
2024/02/07 09:06:15;;;;;;;3.80;1.70;;;;;;;11.13;55.05;94169.75;4923434;29;20225;-84
2024/02/07 09:09:27;;;;;;;2.80;1.70;;;;;;;11.11;55.49;94174.31;4864437;29;20207;-84
2024/02/07 09:12:27;;;;;;;4.07;1.97;;;;;;;10.96;55.77;94205.56;4852124;29;20585;-85
2024/02/07 09:14:56;;;;;;;2.63;1.50;;;;;;;10.96;56.02;94217.66;4968002;23;20598;-84
2024/02/07 09:17:23;;;;;;;4.83;1.70;;;;;;;10.97;56.20;94191.66;4942274;29;20277;-85
2024/02/07 09:19:49;;;;;;;3.73;1.67;;;;;;;11.16;55.64;94184.75;4941947;29;20202;-85
2024/02/07 09:22:16;;;;;;;3.97;1.50;;;;;;;11.33;55.54;94210.75;4929648;29;20206;-85
2024/02/07 09:24:42;;;;;;;3.13;1.67;;;;;;;11.57;55.15;94162.69;4923428;29;20233;-84
2024/02/07 09:27:12;;;;;;;2.33;1.60;;;;;;;11.96;54.42;94135.63;4938483;29;20213;-84
2024/02/07 09:29:39;;;;;;;5.17;1.77;;;;;;;12.00;53.62;94098.06;4946295;28;20244;-85
2024/02/07 09:32:08;;;;;;;3.77;1.67;;;;;;;11.85;54.04;94089.97;4942781;29;20218;-84
2024/02/07 09:34:36;;;;;;;5.87;1.47;;;;;;;11.90;54.27;94093.47;4943431;29;20213;-84
2024/02/07 09:37:07;;;;;;;4.23;1.70;;;;;;;11.86;53.95;94086.38;4942112;29;20209;-85
2024/02/07 09:39:35;;;;;;;3.10;1.40;;;;;;;12.04;53.82;94083.72;4942159;29;20659;-85
2024/02/07 09:42:29;;;;;;;4.53;1.77;;;;;;;12.49;52.94;94036.75;4939914;29;20206;-84
2024/02/07 09:45:19;;;;;;;1.70;1.40;;;;;;;12.68;52.25;94005.41;4942278;29;20272;-85
2024/02/07 09:48:03;;;;;;;3.43;1.90;;;;;;;12.59;52.07;93975.78;4944567;29;20228;-84
2024/02/07 09:50:39;;;;;;;2.93;1.60;;;;;;;12.60;52.02;93959.28;4941739;29;20236;-84
2024/02/07 09:53:15;;;;;;;2.80;1.57;;;;;;;12.79;51.73;93960.69;4942339;29;20290;-83
2024/02/07 09:56:01;;;;;;;2.33;1.43;;;;;;;12.64;51.92;93949.28;4942064;29;20236;-83
2024/02/07 09:58:46;;;;;;;2.27;1.67;;;;;;;12.76;51.88;93971.47;4940360;29;20236;-84
2024/02/07 10:01:18;;;;;;;3.60;1.67;;;;;;;13.14;51.27;93933.91;4941685;29;20213;-84
2024/02/07 10:04:04;;;;;;;3.97;1.77;;;;;;;12.94;51.41;93916.25;4941248;29;20225;-85
2024/02/07 10:06:46;;;;;;;2.47;1.47;;;;;;;12.58;52.16;93943.22;4941961;29;20218;-87
2024/02/07 10:09:22;;;;;;;3.17;1.70;;;;;;;12.13;53.20;93984.34;4939358;29;20264;-85
2024/02/07 10:18:36;;;;;;;1.40;1.30;;;;;;;11.80;54.35;94035.69;4896467;29;20274;-86
2024/02/07 10:21:19;;;;;;;3.63;1.40;;;;;;;11.85;54.18;94043.56;4897820;29;20213;-87
2024/02/07 10:31:07;;;;;;;2.20;1.30;;;;;;;11.81;54.73;94074.16;4818204;29;20236;-84
2024/02/07 10:38:20;;;;;;;1.57;1.47;;;;;;;11.86;54.79;94069.13;4846560;28;20208;-85
2024/02/07 10:47:53;;;;;;;2.93;1.40;;;;;;;12.20;53.97;94020.38;4813590;29;20228;-84
2024/02/07 10:50:33;;;;;;;1.90;1.37;;;;;;;12.14;54.02;94023.81;4933172;29;20213;-85
2024/02/07 10:53:18;;;;;;;3.13;1.53;;;;;;;12.20;53.91;94023.72;4932513;29;20209;-85
2024/02/07 10:56:18;;;;;;;1.87;1.30;;;;;;;12.12;54.16;94006.03;4933974;29;20235;-84
2024/02/07 10:58:53;;;;;;;2.90;1.30;;;;;;;11.92;54.41;94024.41;4932841;29;20294;-84
2024/02/07 11:01:18;;;;;;;3.30;1.27;;;;;;;12.24;53.95;94011.16;4942816;29;20221;-85
2024/02/07 11:03:46;;;;;;;2.33;1.33;;;;;;;12.47;52.92;93979.41;4926313;29;20222;-84
2024/02/07 11:06:13;;;;;;;2.30;1.37;;;;;;;12.50;52.91;93941.03;4923019;29;20210;-85
2024/02/07 11:08:43;;;;;;;3.17;1.50;;;;;;;12.29;52.87;93936.47;4920169;29;20692;-85
2024/02/07 11:11:10;;;;;;;1.70;1.20;;;;;;;12.18;53.48;93940.59;4914925;29;20624;-86
2024/02/07 11:13:39;;;;;;;2.97;1.33;;;;;;;12.58;52.80;93932.13;4912029;29;20223;-85
2024/02/07 11:16:09;;;;;;;1.90;1.40;;;;;;;12.78;52.15;93904.88;4910574;29;20218;-85
2024/02/07 11:18:36;;;;;;;2.37;1.63;;;;;;;13.02;51.55;93863.44;4911609;29;20724;-84
2024/02/07 11:21:09;;;;;;;1.73;1.30;;;;;;;13.14;51.29;93859.75;4919504;29;20265;-84
2024/02/07 11:23:41;;;;;;;1.30;1.20;;;;;;;12.70;51.67;93832.94;4918828;29;20224;-85
2024/02/07 11:26:11;;;;;;;2.30;1.20;;;;;;;12.32;52.37;93859.34;4915397;29;20265;-87
2024/02/07 11:28:40;;;;;;;3.43;1.30;;;;;;;12.23;52.71;93886.53;4919151;29;20236;-88
2024/02/07 11:31:33;;;;;;;3.13;1.30;;;;;;;12.28;52.92;93907.28;4924752;29;20555;-86
2024/02/07 11:34:00;;;;;;;2.83;1.50;;;;;;;12.10;53.14;93882.41;4924218;29;20742;-85
2024/02/07 11:36:29;;;;;;;4.77;1.20;;;;;;;12.01;53.40;93914.72;4925434;29;20416;-85
2024/02/07 11:39:20;;;;;;;6.53;1.60;;;;;;;12.06;53.50;93914.84;4923616;29;20884;-86
2024/02/07 11:42:33;;;;;;;;;;;;;;;;;;;;;
2024/02/07 11:49:14;;;;;;;;;;;;;;;;;;;;;
2024/02/07 11:52:48;;;;;;;3.10;1.43;;;;;;;12.85;51.73;93818.72;4954866;28;20243;-86
2024/02/07 12:08:49;;;;;;;2.70;1.50;;;;;;;12.41;51.95;93810.75;4615994;27;14020781;-84
2024/02/07 12:11:16;;;;;;;2.80;1.20;;;;;;;12.34;52.06;93817.84;5045464;28;20198;-84
2024/02/07 12:13:48;;;;;;;2.40;1.30;;;;;;;12.13;52.62;93828.78;5024336;28;20218;-85
2024/02/07 12:16:19;;;;;;;1.93;1.20;;;;;;;12.08;52.76;93840.59;5011691;28;20219;-85
2024/02/07 12:18:48;;;;;;;4.87;1.40;;;;;;;11.91;53.13;93855.22;5012124;28;20191;-84
2024/02/07 12:21:16;;;;;;;1.63;1.20;;;;;;;11.83;53.77;93868.44;5014016;28;20198;-85
2024/02/07 12:23:43;;;;;;;3.07;1.60;;;;;;;11.85;53.72;93865.63;5023682;28;20222;-85
2024/02/07 12:26:12;;;;;;;3.57;1.37;;;;;;;11.73;53.67;93874.16;5019153;28;20213;-86
2024/02/07 12:28:41;;;;;;;1.77;1.20;;;;;;;11.75;53.90;93887.56;5011436;28;20210;-85
2024/02/07 12:31:08;;;;;;;2.70;1.30;;;;;;;11.76;54.15;93886.59;5011452;28;20298;-85
2024/02/07 12:33:37;;;;;;;3.10;1.33;;;;;;;11.77;53.64;93852.06;5012183;28;20227;-85
2024/02/07 12:36:17;;;;;;;2.30;1.20;;;;;;;11.67;53.69;93848.47;5011620;28;20218;-85
2024/02/07 12:38:44;;;;;;;2.53;1.13;;;;;;;11.62;53.66;93841.41;5012790;28;20928;-86
2024/02/07 12:41:19;;;;;;;4.00;1.40;;;;;;;11.62;53.49;93843.97;5029484;28;20202;-85
2024/02/07 12:43:58;;;;;;;4.80;1.20;;;;;;;11.65;53.35;93835.81;5033056;28;20222;-86
2024/02/07 12:46:24;;;;;;;4.30;1.50;;;;;;;11.70;53.13;93830.75;5032069;28;20221;-86
2024/02/07 12:48:51;;;;;;;3.33;1.60;;;;;;;11.75;53.23;93824.91;5032987;28;20202;-86
2024/02/07 12:51:17;;;;;;;1.67;1.37;;;;;;;11.73;53.13;93819.22;5030542;28;20202;-86
2024/02/07 12:53:54;;;;;;;2.07;1.37;;;;;;;11.81;52.71;93811.16;5030505;28;20768;-86
2024/02/07 12:56:23;;;;;;;3.70;1.23;;;;;;;11.77;53.16;93805.66;5028372;28;20225;-85
2024/02/07 12:58:51;;;;;;;4.33;1.30;;;;;;;11.81;52.90;93798.25;5030304;28;20206;-86
2024/02/07 13:01:20;;;;;;;1.30;1.10;;;;;;;11.79;52.87;93791.75;5030872;28;20202;-86
2024/02/07 13:03:56;;;;;;;2.23;1.30;;;;;;;11.84;52.60;93787.50;5030202;28;20229;-86
2024/02/07 13:06:23;;;;;;;1.70;1.20;;;;;;;11.76;52.63;93798.16;5029951;28;20301;-85
2024/02/07 13:08:50;;;;;;;3.17;1.20;;;;;;;11.73;52.88;93772.81;5021971;28;20210;-86
2024/02/07 13:11:17;;;;;;;2.57;1.70;;;;;;;11.73;52.75;93783.91;5013921;28;20196;-86
2024/02/07 13:13:54;;;;;;;2.47;1.57;;;;;;;11.77;52.65;93771.34;5018607;28;20226;-86
2024/02/07 13:16:23;;;;;;;2.47;1.23;;;;;;;11.80;52.49;93759.81;5018514;28;20290;-86
2024/02/07 13:18:51;;;;;;;2.03;1.20;;;;;;;11.76;52.18;93749.94;5011126;28;20207;-86
2024/02/07 13:21:17;;;;;;;3.23;1.33;;;;;;;11.86;52.38;93738.28;5010635;28;20198;-86
2024/02/07 13:23:45;;;;;;;1.90;1.40;;;;;;;11.80;52.19;93734.81;5015914;28;20226;-86
2024/02/07 13:26:11;;;;;;;1.93;1.50;;;;;;;11.75;52.16;93716.63;5016885;28;20305;-86
2024/02/07 13:28:39;;;;;;;1.43;1.30;;;;;;;11.74;51.94;93715.84;5021906;28;20261;-87
2024/02/07 13:31:11;;;;;;;1.47;1.20;;;;;;;11.67;51.78;93707.47;5023265;28;20219;-85
2024/02/07 13:33:38;;;;;;;2.37;1.30;;;;;;;11.70;52.02;93714.75;5022833;28;20515;-85
2024/02/07 13:36:07;;;;;;;3.40;1.47;;;;;;;11.73;52.30;93704.00;5021911;28;20286;-85
2024/02/07 13:38:34;;;;;;;1.40;1.30;;;;;;;11.69;52.00;93710.63;5019076;28;20223;-84
2024/02/07 13:47:49;;;;;;;3.77;1.40;;;;;;;11.73;52.13;93703.22;4928517;29;20209;-85
2024/02/07 13:50:22;;;;;;;1.30;1.20;;;;;;;11.70;52.05;93699.28;4973161;28;20214;-86
2024/02/07 13:52:48;;;;;;;1.77;1.20;;;;;;;11.77;52.24;93701.75;4972218;28;20208;-86
2024/02/07 13:55:21;;;;;;;2.77;1.50;;;;;;;11.83;52.00;93702.63;5006160;28;20231;-84
2024/02/07 13:57:51;;;;;;;2.50;1.40;;;;;;;11.81;52.26;93708.03;5014116;28;20717;-87
2024/02/07 14:00:21;;;;;;;3.13;1.40;;;;;;;11.80;52.22;93696.13;5013867;28;20237;-86
2024/02/07 14:02:57;;;;;;;1.47;1.13;;;;;;;11.68;52.04;93692.81;5014220;28;20202;-87
2024/02/07 14:05:27;;;;;;;2.57;1.50;;;;;;;11.72;52.32;93701.66;5015240;28;20293;-86
2024/02/07 14:11:17;;;;;;;3.03;1.30;;;;;;;11.83;52.31;93712.94;4999889;28;20196;-86
2024/02/07 14:13:44;;;;;;;2.80;1.20;;;;;;;11.76;52.28;93702.75;4998233;28;20302;-87
2024/02/07 14:16:12;;;;;;;3.57;1.70;;;;;;;11.82;52.27;93683.03;5003045;28;20266;-85
2024/02/07 14:18:52;;;;;;;3.40;1.30;;;;;;;11.82;52.56;93686.38;5013717;28;20253;-87
2024/02/07 14:21:20;;;;;;;4.67;1.33;;;;;;;11.86;52.41;93679.75;5012105;28;20265;-86
2024/02/07 14:23:53;;;;;;;3.37;1.40;;;;;;;11.86;52.66;93702.97;5013139;28;20254;-87
2024/02/07 14:26:22;;;;;;;2.03;1.47;;;;;;;11.89;52.71;93699.16;5015019;28;20270;-85
2024/02/07 14:28:48;;;;;;;2.57;1.50;;;;;;;11.84;52.49;93686.94;5013763;28;20195;-86
2024/02/07 14:31:24;;;;;;;3.20;1.50;;;;;;;11.90;52.83;93698.91;5014847;28;20199;-86